sensor_id;sensor_type;location;lat;lon;timestamp;P1;durP1;ratioP1;P2;durP2;ratioP2
17422;SDS011;8829;47.932;7.810;2023-02-01T00:00:28;4.20;;;3.00;;
17422;SDS011;8829;47.932;7.810;2023-02-01T00:02:54;3.47;;;3.20;;
17422;SDS011;8829;47.932;7.810;2023-02-01T00:05:21;4.00;;;3.47;;
17422;SDS011;8829;47.932;7.810;2023-02-01T00:07:48;3.67;;;3.00;;
17422;SDS011;8829;47.932;7.810;2023-02-01T00:10:14;3.10;;;2.90;;
17422;SDS011;8829;47.932;7.810;2023-02-01T00:12:43;3.47;;;3.13;;
17422;SDS011;8829;47.932;7.810;2023-02-01T00:15:10;3.20;;;3.00;;
17422;SDS011;8829;47.932;7.810;2023-02-01T00:17:37;3.73;;;2.87;;
17422;SDS011;8829;47.932;7.810;2023-02-01T00:20:04;3.87;;;2.87;;
17422;SDS011;8829;47.932;7.810;2023-02-01T00:22:32;3.70;;;3.23;;
17422;SDS011;8829;47.932;7.810;2023-02-01T00:24:59;2.93;;;2.73;;
17422;SDS011;8829;47.932;7.810;2023-02-01T00:27:25;3.67;;;3.37;;
17422;SDS011;8829;47.932;7.810;2023-02-01T00:29:55;4.97;;;3.23;;
17422;SDS011;8829;47.932;7.810;2023-02-01T00:32:21;3.80;;;2.70;;
17422;SDS011;8829;47.932;7.810;2023-02-01T00:34:49;3.10;;;2.80;;
17422;SDS011;8829;47.932;7.810;2023-02-01T00:37:16;4.20;;;3.00;;
17422;SDS011;8829;47.932;7.810;2023-02-01T00:39:43;2.93;;;2.57;;
17422;SDS011;8829;47.932;7.810;2023-02-01T00:42:09;3.03;;;2.80;;
17422;SDS011;8829;47.932;7.810;2023-02-01T00:44:36;2.83;;;2.63;;
17422;SDS011;8829;47.932;7.810;2023-02-01T00:47:04;4.43;;;2.63;;
17422;SDS011;8829;47.932;7.810;2023-02-01T00:49:32;3.23;;;2.93;;
17422;SDS011;8829;47.932;7.810;2023-02-01T00:51:59;3.30;;;2.87;;
17422;SDS011;8829;47.932;7.810;2023-02-01T00:54:25;2.90;;;2.70;;
17422;SDS011;8829;47.932;7.810;2023-02-01T00:56:52;3.63;;;2.60;;
17422;SDS011;8829;47.932;7.810;2023-02-01T00:59:19;3.97;;;2.90;;
17422;SDS011;8829;47.932;7.810;2023-02-01T01:01:46;3.40;;;2.40;;
17422;SDS011;8829;47.932;7.810;2023-02-01T01:04:14;5.93;;;2.70;;
17422;SDS011;8829;47.932;7.810;2023-02-01T01:06:40;2.80;;;2.60;;
17422;SDS011;8829;47.932;7.810;2023-02-01T01:09:07;3.10;;;2.77;;
17422;SDS011;8829;47.932;7.810;2023-02-01T01:11:36;2.67;;;2.47;;
17422;SDS011;8829;47.932;7.810;2023-02-01T01:14:04;2.70;;;2.50;;
17422;SDS011;8829;47.932;7.810;2023-02-01T01:16:32;3.53;;;2.60;;
17422;SDS011;8829;47.932;7.810;2023-02-01T01:18:59;3.13;;;2.90;;
17422;SDS011;8829;47.932;7.810;2023-02-01T01:21:28;3.40;;;2.53;;
17422;SDS011;8829;47.932;7.810;2023-02-01T01:23:55;3.07;;;2.77;;
17422;SDS011;8829;47.932;7.810;2023-02-01T01:26:24;4.03;;;3.73;;
17422;SDS011;8829;47.932;7.810;2023-02-01T01:28:54;3.87;;;3.00;;
17422;SDS011;8829;47.932;7.810;2023-02-01T01:31:21;3.37;;;3.07;;
17422;SDS011;8829;47.932;7.810;2023-02-01T01:33:48;6.23;;;2.90;;
17422;SDS011;8829;47.932;7.810;2023-02-01T01:36:16;3.40;;;2.93;;
17422;SDS011;8829;47.932;7.810;2023-02-01T01:38:44;2.93;;;2.47;;
17422;SDS011;8829;47.932;7.810;2023-02-01T01:41:12;2.93;;;2.70;;
17422;SDS011;8829;47.932;7.810;2023-02-01T01:43:45;3.87;;;2.83;;
17422;SDS011;8829;47.932;7.810;2023-02-01T01:46:15;4.10;;;2.67;;
17422;SDS011;8829;47.932;7.810;2023-02-01T01:48:42;3.80;;;3.50;;
17422;SDS011;8829;47.932;7.810;2023-02-01T01:51:10;3.33;;;2.30;;
17422;SDS011;8829;47.932;7.810;2023-02-01T01:53:42;4.70;;;3.07;;
17422;SDS011;8829;47.932;7.810;2023-02-01T01:56:12;4.57;;;2.90;;
17422;SDS011;8829;47.932;7.810;2023-02-01T01:58:39;3.67;;;3.13;;
17422;SDS011;8829;47.932;7.810;2023-02-01T02:01:07;4.50;;;3.20;;
17422;SDS011;8829;47.932;7.810;2023-02-01T02:03:35;2.60;;;2.40;;
17422;SDS011;8829;47.932;7.810;2023-02-01T02:06:08;4.37;;;2.60;;
17422;SDS011;8829;47.932;7.810;2023-02-01T02:08:41;2.90;;;2.70;;
17422;SDS011;8829;47.932;7.810;2023-02-01T02:11:11;3.47;;;2.63;;
17422;SDS011;8829;47.932;7.810;2023-02-01T02:13:41;3.67;;;2.70;;
17422;SDS011;8829;47.932;7.810;2023-02-01T02:16:14;3.20;;;2.70;;
17422;SDS011;8829;47.932;7.810;2023-02-01T02:22:26;3.23;;;2.93;;
17422;SDS011;8829;47.932;7.810;2023-02-01T02:28:19;3.20;;;2.77;;
17422;SDS011;8829;47.932;7.810;2023-02-01T02:31:07;3.90;;;2.50;;
17422;SDS011;8829;47.932;7.810;2023-02-01T02:33:54;4.40;;;2.93;;
17422;SDS011;8829;47.932;7.810;2023-02-01T02:36:32;3.03;;;2.70;;
17422;SDS011;8829;47.932;7.810;2023-02-01T02:39:06;4.60;;;3.00;;
17422;SDS011;8829;47.932;7.810;2023-02-01T02:41:47;2.83;;;2.60;;
17422;SDS011;8829;47.932;7.810;2023-02-01T02:44:39;2.90;;;2.63;;
17422;SDS011;8829;47.932;7.810;2023-02-01T02:47:32;5.03;;;3.10;;
17422;SDS011;8829;47.932;7.810;2023-02-01T02:50:05;3.93;;;2.90;;
17422;SDS011;8829;47.932;7.810;2023-02-01T02:53:00;2.97;;;2.30;;
17422;SDS011;8829;47.932;7.810;2023-02-01T02:55:48;3.17;;;2.80;;
17422;SDS011;8829;47.932;7.810;2023-02-01T02:58:16;2.23;;;2.07;;
17422;SDS011;8829;47.932;7.810;2023-02-01T03:01:01;4.23;;;2.60;;
17422;SDS011;8829;47.932;7.810;2023-02-01T03:03:47;3.47;;;2.67;;
17422;SDS011;8829;47.932;7.810;2023-02-01T03:06:36;2.90;;;2.70;;
17422;SDS011;8829;47.932;7.810;2023-02-01T03:09:05;2.50;;;2.30;;
17422;SDS011;8829;47.932;7.810;2023-02-01T03:11:39;2.93;;;2.53;;
17422;SDS011;8829;47.932;7.810;2023-02-01T03:14:26;2.93;;;2.73;;
17422;SDS011;8829;47.932;7.810;2023-02-01T03:16:57;5.50;;;2.80;;
17422;SDS011;8829;47.932;7.810;2023-02-01T03:19:31;3.47;;;2.63;;
17422;SDS011;8829;47.932;7.810;2023-02-01T03:22:02;3.60;;;3.07;;
17422;SDS011;8829;47.932;7.810;2023-02-01T03:24:39;2.77;;;2.57;;
17422;SDS011;8829;47.932;7.810;2023-02-01T03:27:08;2.47;;;2.27;;
17422;SDS011;8829;47.932;7.810;2023-02-01T03:29:40;4.93;;;3.00;;
17422;SDS011;8829;47.932;7.810;2023-02-01T03:32:11;3.10;;;2.70;;
17422;SDS011;8829;47.932;7.810;2023-02-01T03:34:38;3.13;;;2.87;;
17422;SDS011;8829;47.932;7.810;2023-02-01T03:37:08;4.50;;;3.63;;
17422;SDS011;8829;47.932;7.810;2023-02-01T03:39:39;2.70;;;2.50;;
17422;SDS011;8829;47.932;7.810;2023-02-01T03:42:10;2.80;;;2.53;;
17422;SDS011;8829;47.932;7.810;2023-02-01T03:44:44;4.20;;;3.07;;
17422;SDS011;8829;47.932;7.810;2023-02-01T03:47:16;3.27;;;2.60;;
17422;SDS011;8829;47.932;7.810;2023-02-01T03:49:46;3.50;;;3.20;;
17422;SDS011;8829;47.932;7.810;2023-02-01T03:52:18;3.07;;;2.80;;
17422;SDS011;8829;47.932;7.810;2023-02-01T03:54:49;4.87;;;2.90;;
17422;SDS011;8829;47.932;7.810;2023-02-01T03:57:18;3.60;;;3.13;;
17422;SDS011;8829;47.932;7.810;2023-02-01T03:59:49;6.63;;;3.17;;
17422;SDS011;8829;47.932;7.810;2023-02-01T04:02:16;3.87;;;3.53;;
17422;SDS011;8829;47.932;7.810;2023-02-01T04:04:42;4.27;;;3.23;;
17422;SDS011;8829;47.932;7.810;2023-02-01T04:07:10;7.50;;;3.93;;
17422;SDS011;8829;47.932;7.810;2023-02-01T04:09:38;4.93;;;3.60;;
17422;SDS011;8829;47.932;7.810;2023-02-01T04:12:05;4.30;;;3.57;;
17422;SDS011;8829;47.932;7.810;2023-02-01T04:14:31;3.70;;;3.10;;
17422;SDS011;8829;47.932;7.810;2023-02-01T04:16:58;3.50;;;3.17;;
17422;SDS011;8829;47.932;7.810;2023-02-01T04:19:25;4.27;;;3.10;;
17422;SDS011;8829;47.932;7.810;2023-02-01T04:21:51;3.70;;;3.30;;
17422;SDS011;8829;47.932;7.810;2023-02-01T04:24:18;3.80;;;2.93;;
17422;SDS011;8829;47.932;7.810;2023-02-01T04:26:46;3.20;;;2.63;;
17422;SDS011;8829;47.932;7.810;2023-02-01T04:29:13;2.93;;;2.63;;
17422;SDS011;8829;47.932;7.810;2023-02-01T04:31:40;4.57;;;2.90;;
17422;SDS011;8829;47.932;7.810;2023-02-01T04:34:06;3.23;;;2.73;;
17422;SDS011;8829;47.932;7.810;2023-02-01T04:36:33;3.87;;;2.60;;
17422;SDS011;8829;47.932;7.810;2023-02-01T04:39:00;2.87;;;2.67;;
17422;SDS011;8829;47.932;7.810;2023-02-01T04:41:26;2.70;;;2.37;;
17422;SDS011;8829;47.932;7.810;2023-02-01T04:43:55;2.83;;;2.67;;
17422;SDS011;8829;47.932;7.810;2023-02-01T04:46:22;2.93;;;2.60;;
17422;SDS011;8829;47.932;7.810;2023-02-01T04:48:48;2.63;;;2.43;;
17422;SDS011;8829;47.932;7.810;2023-02-01T04:51:15;3.40;;;2.50;;
17422;SDS011;8829;47.932;7.810;2023-02-01T04:53:43;3.53;;;2.30;;
17422;SDS011;8829;47.932;7.810;2023-02-01T04:56:09;4.73;;;2.87;;
17422;SDS011;8829;47.932;7.810;2023-02-01T04:58:36;2.57;;;2.37;;
17422;SDS011;8829;47.932;7.810;2023-02-01T05:01:05;2.53;;;2.30;;
17422;SDS011;8829;47.932;7.810;2023-02-01T05:03:33;2.57;;;2.23;;
17422;SDS011;8829;47.932;7.810;2023-02-01T05:06:00;2.30;;;2.13;;
17422;SDS011;8829;47.932;7.810;2023-02-01T05:08:29;2.33;;;2.10;;
17422;SDS011;8829;47.932;7.810;2023-02-01T05:10:55;1.80;;;1.70;;
17422;SDS011;8829;47.932;7.810;2023-02-01T05:13:23;2.60;;;2.07;;
17422;SDS011;8829;47.932;7.810;2023-02-01T05:16:09;2.80;;;1.93;;
17422;SDS011;8829;47.932;7.810;2023-02-01T05:18:35;2.20;;;2.00;;
17422;SDS011;8829;47.932;7.810;2023-02-01T05:21:02;5.00;;;2.80;;
17422;SDS011;8829;47.932;7.810;2023-02-01T05:23:29;3.50;;;2.27;;
17422;SDS011;8829;47.932;7.810;2023-02-01T05:26:18;3.90;;;2.30;;
17422;SDS011;8829;47.932;7.810;2023-02-01T05:28:44;4.67;;;2.40;;
17422;SDS011;8829;47.932;7.810;2023-02-01T05:31:12;3.20;;;2.90;;
17422;SDS011;8829;47.932;7.810;2023-02-01T05:33:39;3.70;;;2.80;;
17422;SDS011;8829;47.932;7.810;2023-02-01T05:36:06;4.13;;;2.13;;
17422;SDS011;8829;47.932;7.810;2023-02-01T05:38:33;2.87;;;2.67;;
17422;SDS011;8829;47.932;7.810;2023-02-01T05:40:59;5.37;;;2.53;;
17422;SDS011;8829;47.932;7.810;2023-02-01T05:43:26;2.10;;;2.00;;
17422;SDS011;8829;47.932;7.810;2023-02-01T05:45:53;5.47;;;3.10;;
17422;SDS011;8829;47.932;7.810;2023-02-01T05:48:21;2.70;;;2.50;;
17422;SDS011;8829;47.932;7.810;2023-02-01T05:50:47;4.10;;;2.73;;
17422;SDS011;8829;47.932;7.810;2023-02-01T05:53:14;2.97;;;2.67;;
17422;SDS011;8829;47.932;7.810;2023-02-01T05:55:42;4.03;;;2.40;;
17422;SDS011;8829;47.932;7.810;2023-02-01T05:58:09;4.77;;;3.57;;
17422;SDS011;8829;47.932;7.810;2023-02-01T06:00:37;2.50;;;2.33;;
17422;SDS011;8829;47.932;7.810;2023-02-01T06:03:04;2.50;;;2.40;;
17422;SDS011;8829;47.932;7.810;2023-02-01T06:05:32;2.80;;;2.60;;
17422;SDS011;8829;47.932;7.810;2023-02-01T06:07:59;2.47;;;2.27;;
17422;SDS011;8829;47.932;7.810;2023-02-01T06:10:26;2.70;;;2.50;;
17422;SDS011;8829;47.932;7.810;2023-02-01T06:12:52;2.60;;;2.40;;
17422;SDS011;8829;47.932;7.810;2023-02-01T06:15:19;2.40;;;2.30;;
17422;SDS011;8829;47.932;7.810;2023-02-01T06:17:46;2.33;;;2.07;;
17422;SDS011;8829;47.932;7.810;2023-02-01T06:20:13;2.00;;;1.80;;
17422;SDS011;8829;47.932;7.810;2023-02-01T06:22:42;1.93;;;1.83;;
17422;SDS011;8829;47.932;7.810;2023-02-01T06:25:09;1.63;;;1.53;;
17422;SDS011;8829;47.932;7.810;2023-02-01T06:27:36;1.97;;;1.57;;
17422;SDS011;8829;47.932;7.810;2023-02-01T06:30:03;1.80;;;1.50;;
17422;SDS011;8829;47.932;7.810;2023-02-01T06:32:31;2.00;;;1.70;;
17422;SDS011;8829;47.932;7.810;2023-02-01T06:34:58;1.43;;;1.40;;
17422;SDS011;8829;47.932;7.810;2023-02-01T06:37:25;2.10;;;1.80;;
17422;SDS011;8829;47.932;7.810;2023-02-01T06:39:55;1.70;;;1.60;;
17422;SDS011;8829;47.932;7.810;2023-02-01T06:42:22;1.53;;;1.43;;
17422;SDS011;8829;47.932;7.810;2023-02-01T06:44:49;1.70;;;1.60;;
17422;SDS011;8829;47.932;7.810;2023-02-01T06:47:15;1.10;;;1.10;;
17422;SDS011;8829;47.932;7.810;2023-02-01T06:49:42;1.70;;;1.47;;
17422;SDS011;8829;47.932;7.810;2023-02-01T06:52:09;1.47;;;1.37;;
17422;SDS011;8829;47.932;7.810;2023-02-01T06:54:35;1.50;;;1.40;;
17422;SDS011;8829;47.932;7.810;2023-02-01T06:57:05;1.33;;;1.23;;
17422;SDS011;8829;47.932;7.810;2023-02-01T06:59:31;1.10;;;1.10;;
17422;SDS011;8829;47.932;7.810;2023-02-01T07:01:58;1.20;;;1.20;;
17422;SDS011;8829;47.932;7.810;2023-02-01T07:04:25;1.07;;;1.07;;
17422;SDS011;8829;47.932;7.810;2023-02-01T07:06:51;1.93;;;1.30;;
17422;SDS011;8829;47.932;7.810;2023-02-01T07:09:18;1.53;;;1.43;;
17422;SDS011;8829;47.932;7.810;2023-02-01T07:11:48;1.50;;;1.40;;
17422;SDS011;8829;47.932;7.810;2023-02-01T07:14:16;1.20;;;1.20;;
17422;SDS011;8829;47.932;7.810;2023-02-01T07:16:44;1.37;;;1.27;;
17422;SDS011;8829;47.932;7.810;2023-02-01T07:19:10;4.17;;;1.60;;
17422;SDS011;8829;47.932;7.810;2023-02-01T07:21:38;1.50;;;1.40;;
17422;SDS011;8829;47.932;7.810;2023-02-01T07:24:05;1.43;;;1.33;;
17422;SDS011;8829;47.932;7.810;2023-02-01T07:26:32;1.80;;;1.30;;
17422;SDS011;8829;47.932;7.810;2023-02-01T07:28:59;2.20;;;1.57;;
17422;SDS011;8829;47.932;7.810;2023-02-01T07:31:27;5.50;;;1.40;;
17422;SDS011;8829;47.932;7.810;2023-02-01T07:33:54;1.30;;;1.30;;
17422;SDS011;8829;47.932;7.810;2023-02-01T07:36:22;1.70;;;1.60;;
17422;SDS011;8829;47.932;7.810;2023-02-01T07:38:49;1.97;;;1.30;;
17422;SDS011;8829;47.932;7.810;2023-02-01T07:41:17;1.60;;;1.50;;
17422;SDS011;8829;47.932;7.810;2023-02-01T07:43:44;3.27;;;1.70;;
17422;SDS011;8829;47.932;7.810;2023-02-01T07:46:11;5.17;;;1.60;;
17422;SDS011;8829;47.932;7.810;2023-02-01T07:48:42;2.17;;;1.87;;
17422;SDS011;8829;47.932;7.810;2023-02-01T07:51:09;1.70;;;1.60;;
17422;SDS011;8829;47.932;7.810;2023-02-01T07:53:37;1.93;;;1.70;;
17422;SDS011;8829;47.932;7.810;2023-02-01T07:56:09;2.03;;;1.90;;
17422;SDS011;8829;47.932;7.810;2023-02-01T07:58:37;1.70;;;1.60;;
17422;SDS011;8829;47.932;7.810;2023-02-01T08:01:03;2.07;;;1.97;;
17422;SDS011;8829;47.932;7.810;2023-02-01T08:03:47;2.87;;;1.70;;
17422;SDS011;8829;47.932;7.810;2023-02-01T08:06:14;2.30;;;1.60;;
17422;SDS011;8829;47.932;7.810;2023-02-01T08:08:41;4.40;;;1.77;;
17422;SDS011;8829;47.932;7.810;2023-02-01T08:11:10;1.40;;;1.40;;
17422;SDS011;8829;47.932;7.810;2023-02-01T08:13:37;2.47;;;1.80;;
17422;SDS011;8829;47.932;7.810;2023-02-01T08:16:06;2.70;;;1.70;;
17422;SDS011;8829;47.932;7.810;2023-02-01T08:18:36;1.70;;;1.60;;
17422;SDS011;8829;47.932;7.810;2023-02-01T08:21:06;4.37;;;1.47;;
17422;SDS011;8829;47.932;7.810;2023-02-01T08:23:35;2.53;;;1.60;;
17422;SDS011;8829;47.932;7.810;2023-02-01T08:26:06;2.37;;;1.57;;
17422;SDS011;8829;47.932;7.810;2023-02-01T08:28:36;1.50;;;1.40;;
17422;SDS011;8829;47.932;7.810;2023-02-01T08:31:06;2.03;;;1.70;;
17422;SDS011;8829;47.932;7.810;2023-02-01T08:33:34;1.47;;;1.20;;
17422;SDS011;8829;47.932;7.810;2023-02-01T08:36:03;3.83;;;1.47;;
17422;SDS011;8829;47.932;7.810;2023-02-01T08:38:32;1.30;;;1.17;;
17422;SDS011;8829;47.932;7.810;2023-02-01T08:41:03;1.43;;;1.30;;
17422;SDS011;8829;47.932;7.810;2023-02-01T08:43:31;1.33;;;1.20;;
17422;SDS011;8829;47.932;7.810;2023-02-01T08:45:58;1.20;;;1.20;;
17422;SDS011;8829;47.932;7.810;2023-02-01T08:48:25;2.90;;;1.60;;
17422;SDS011;8829;47.932;7.810;2023-02-01T08:50:51;1.40;;;1.30;;
17422;SDS011;8829;47.932;7.810;2023-02-01T08:53:18;1.73;;;1.30;;
17422;SDS011;8829;47.932;7.810;2023-02-01T08:55:46;1.60;;;1.50;;
17422;SDS011;8829;47.932;7.810;2023-02-01T08:58:13;2.27;;;1.53;;
17422;SDS011;8829;47.932;7.810;2023-02-01T09:00:41;1.20;;;1.20;;
17422;SDS011;8829;47.932;7.810;2023-02-01T09:03:09;1.07;;;1.07;;
17422;SDS011;8829;47.932;7.810;2023-02-01T09:05:37;2.03;;;1.30;;
17422;SDS011;8829;47.932;7.810;2023-02-01T09:08:04;1.30;;;1.20;;
17422;SDS011;8829;47.932;7.810;2023-02-01T09:10:31;0.93;;;0.93;;
17422;SDS011;8829;47.932;7.810;2023-02-01T09:13:00;1.43;;;1.20;;
17422;SDS011;8829;47.932;7.810;2023-02-01T09:15:28;1.20;;;1.20;;
17422;SDS011;8829;47.932;7.810;2023-02-01T09:17:54;2.63;;;1.60;;
17422;SDS011;8829;47.932;7.810;2023-02-01T09:20:21;1.87;;;1.77;;
17422;SDS011;8829;47.932;7.810;2023-02-01T09:22:49;2.07;;;1.80;;
17422;SDS011;8829;47.932;7.810;2023-02-01T09:25:16;2.17;;;1.50;;
17422;SDS011;8829;47.932;7.810;2023-02-01T09:27:46;2.50;;;2.30;;
17422;SDS011;8829;47.932;7.810;2023-02-01T09:30:14;2.23;;;2.03;;
17422;SDS011;8829;47.932;7.810;2023-02-01T09:32:42;3.87;;;3.07;;
17422;SDS011;8829;47.932;7.810;2023-02-01T09:35:09;3.03;;;2.83;;
17422;SDS011;8829;47.932;7.810;2023-02-01T09:37:36;3.23;;;3.03;;
17422;SDS011;8829;47.932;7.810;2023-02-01T09:40:03;2.60;;;2.40;;
17422;SDS011;8829;47.932;7.810;2023-02-01T09:42:40;1.93;;;1.73;;
17422;SDS011;8829;47.932;7.810;2023-02-01T09:45:24;3.13;;;2.50;;
17422;SDS011;8829;47.932;7.810;2023-02-01T09:47:59;2.10;;;2.00;;
17422;SDS011;8829;47.932;7.810;2023-02-01T09:50:30;2.97;;;2.77;;
17422;SDS011;8829;47.932;7.810;2023-02-01T09:53:02;2.20;;;2.00;;
17422;SDS011;8829;47.932;7.810;2023-02-01T09:55:32;1.83;;;1.67;;
17422;SDS011;8829;47.932;7.810;2023-02-01T09:58:05;2.70;;;1.90;;
17422;SDS011;8829;47.932;7.810;2023-02-01T10:00:40;3.17;;;2.83;;
17422;SDS011;8829;47.932;7.810;2023-02-01T10:03:12;2.43;;;2.10;;
17422;SDS011;8829;47.932;7.810;2023-02-01T10:11:39;3.60;;;2.50;;
17422;SDS011;8829;47.932;7.810;2023-02-01T10:14:19;2.67;;;2.10;;
17422;SDS011;8829;47.932;7.810;2023-02-01T10:16:56;4.90;;;2.60;;
17422;SDS011;8829;47.932;7.810;2023-02-01T10:19:34;4.50;;;2.37;;
17422;SDS011;8829;47.932;7.810;2023-02-01T10:22:09;2.83;;;2.43;;
17422;SDS011;8829;47.932;7.810;2023-02-01T10:24:44;2.40;;;2.20;;
17422;SDS011;8829;47.932;7.810;2023-02-01T10:27:18;4.50;;;2.53;;
17422;SDS011;8829;47.932;7.810;2023-02-01T10:29:47;5.10;;;2.47;;
17422;SDS011;8829;47.932;7.810;2023-02-01T10:32:22;3.67;;;2.60;;
17422;SDS011;8829;47.932;7.810;2023-02-01T10:34:52;6.67;;;2.83;;
17422;SDS011;8829;47.932;7.810;2023-02-01T10:37:24;6.60;;;2.60;;
17422;SDS011;8829;47.932;7.810;2023-02-01T10:39:55;3.47;;;3.00;;
17422;SDS011;8829;47.932;7.810;2023-02-01T10:42:24;4.27;;;2.90;;
17422;SDS011;8829;47.932;7.810;2023-02-01T10:44:52;2.40;;;2.10;;
17422;SDS011;8829;47.932;7.810;2023-02-01T10:47:24;5.40;;;2.60;;
17422;SDS011;8829;47.932;7.810;2023-02-01T10:49:52;7.27;;;2.63;;
17422;SDS011;8829;47.932;7.810;2023-02-01T10:52:28;2.60;;;2.40;;
17422;SDS011;8829;47.932;7.810;2023-02-01T10:57:54;2.63;;;2.43;;
17422;SDS011;8829;47.932;7.810;2023-02-01T11:00:22;2.57;;;2.30;;
17422;SDS011;8829;47.932;7.810;2023-02-01T11:02:51;3.20;;;2.90;;
17422;SDS011;8829;47.932;7.810;2023-02-01T11:05:19;3.93;;;2.13;;
17422;SDS011;8829;47.932;7.810;2023-02-01T11:07:48;5.53;;;2.33;;
17422;SDS011;8829;47.932;7.810;2023-02-01T11:13:01;8.03;;;3.07;;
17422;SDS011;8829;47.932;7.810;2023-02-01T11:15:29;7.67;;;3.07;;
17422;SDS011;8829;47.932;7.810;2023-02-01T11:17:57;6.87;;;2.87;;
17422;SDS011;8829;47.932;7.810;2023-02-01T11:20:41;3.83;;;2.57;;
17422;SDS011;8829;47.932;7.810;2023-02-01T11:23:12;2.80;;;2.30;;
17422;SDS011;8829;47.932;7.810;2023-02-01T11:25:47;5.97;;;2.50;;
17422;SDS011;8829;47.932;7.810;2023-02-01T11:28:15;4.77;;;2.83;;
17422;SDS011;8829;47.932;7.810;2023-02-01T11:30:44;6.47;;;2.67;;
17422;SDS011;8829;47.932;7.810;2023-02-01T11:33:15;2.90;;;2.27;;
17422;SDS011;8829;47.932;7.810;2023-02-01T11:35:44;4.23;;;2.83;;
17422;SDS011;8829;47.932;7.810;2023-02-01T11:38:20;4.53;;;2.63;;
17422;SDS011;8829;47.932;7.810;2023-02-01T11:40:48;4.87;;;3.20;;
17422;SDS011;8829;47.932;7.810;2023-02-01T11:43:17;6.18;;;3.05;;
17422;SDS011;8829;47.932;7.810;2023-02-01T11:45:56;6.83;;;2.60;;
17422;SDS011;8829;47.932;7.810;2023-02-01T11:48:25;6.70;;;3.00;;
17422;SDS011;8829;47.932;7.810;2023-02-01T11:50:57;5.63;;;2.33;;
17422;SDS011;8829;47.932;7.810;2023-02-01T11:53:37;5.00;;;2.50;;
17422;SDS011;8829;47.932;7.810;2023-02-01T11:56:16;5.70;;;2.53;;
17422;SDS011;8829;47.932;7.810;2023-02-01T12:05:02;5.07;;;2.90;;
17422;SDS011;8829;47.932;7.810;2023-02-01T12:07:47;3.10;;;2.13;;
17422;SDS011;8829;47.932;7.810;2023-02-01T12:10:28;5.33;;;2.43;;
17422;SDS011;8829;47.932;7.810;2023-02-01T12:13:06;8.33;;;2.20;;
17422;SDS011;8829;47.932;7.810;2023-02-01T12:15:46;5.90;;;2.57;;
17422;SDS011;8829;47.932;7.810;2023-02-01T12:18:39;9.37;;;4.10;;
17422;SDS011;8829;47.932;7.810;2023-02-01T12:21:28;6.40;;;2.47;;
17422;SDS011;8829;47.932;7.810;2023-02-01T12:24:15;6.70;;;2.27;;
17422;SDS011;8829;47.932;7.810;2023-02-01T12:27:07;5.63;;;1.93;;
17422;SDS011;8829;47.932;7.810;2023-02-01T12:29:48;6.60;;;2.57;;
17422;SDS011;8829;47.932;7.810;2023-02-01T12:32:38;8.77;;;2.60;;
17422;SDS011;8829;47.932;7.810;2023-02-01T12:38:19;5.13;;;2.23;;
17422;SDS011;8829;47.932;7.810;2023-02-01T12:40:55;5.03;;;2.37;;
17422;SDS011;8829;47.932;7.810;2023-02-01T12:43:35;7.60;;;2.83;;
17422;SDS011;8829;47.932;7.810;2023-02-01T12:46:07;5.37;;;2.70;;
17422;SDS011;8829;47.932;7.810;2023-02-01T12:48:40;3.20;;;2.60;;
17422;SDS011;8829;47.932;7.810;2023-02-01T12:51:18;6.63;;;2.53;;
17422;SDS011;8829;47.932;7.810;2023-02-01T12:53:51;9.37;;;2.77;;
17422;SDS011;8829;47.932;7.810;2023-02-01T12:56:21;6.93;;;2.80;;
17422;SDS011;8829;47.932;7.810;2023-02-01T12:58:50;7.60;;;2.90;;
17422;SDS011;8829;47.932;7.810;2023-02-01T13:01:20;10.43;;;3.00;;
17422;SDS011;8829;47.932;7.810;2023-02-01T13:03:58;6.30;;;2.60;;
17422;SDS011;8829;47.932;7.810;2023-02-01T13:06:32;8.80;;;3.07;;
17422;SDS011;8829;47.932;7.810;2023-02-01T13:09:07;6.67;;;2.70;;
17422;SDS011;8829;47.932;7.810;2023-02-01T13:11:43;6.20;;;2.70;;
17422;SDS011;8829;47.932;7.810;2023-02-01T13:14:14;10.20;;;3.00;;
17422;SDS011;8829;47.932;7.810;2023-02-01T13:16:49;11.37;;;2.70;;
17422;SDS011;8829;47.932;7.810;2023-02-01T13:19:20;6.57;;;2.57;;
17422;SDS011;8829;47.932;7.810;2023-02-01T13:21:53;7.40;;;2.63;;
17422;SDS011;8829;47.932;7.810;2023-02-01T13:24:29;4.87;;;2.63;;
17422;SDS011;8829;47.932;7.810;2023-02-01T13:27:01;4.70;;;2.60;;
17422;SDS011;8829;47.932;7.810;2023-02-01T13:29:27;7.27;;;2.37;;
17422;SDS011;8829;47.932;7.810;2023-02-01T13:32:00;5.43;;;2.77;;
17422;SDS011;8829;47.932;7.810;2023-02-01T13:37:46;7.67;;;2.43;;
17422;SDS011;8829;47.932;7.810;2023-02-01T13:40:30;10.48;;;3.30;;
17422;SDS011;8829;47.932;7.810;2023-02-01T13:43:06;10.60;;;3.80;;
17422;SDS011;8829;47.932;7.810;2023-02-01T13:45:45;11.03;;;4.90;;
17422;SDS011;8829;47.932;7.810;2023-02-01T13:48:24;11.63;;;2.90;;
17422;SDS011;8829;47.932;7.810;2023-02-01T13:50:54;8.40;;;2.73;;
17422;SDS011;8829;47.932;7.810;2023-02-01T13:53:26;6.57;;;2.77;;
17422;SDS011;8829;47.932;7.810;2023-02-01T13:56:00;12.27;;;2.70;;
17422;SDS011;8829;47.932;7.810;2023-02-01T13:58:32;7.80;;;3.00;;
17422;SDS011;8829;47.932;7.810;2023-02-01T14:04:03;7.53;;;2.80;;
17422;SDS011;8829;47.932;7.810;2023-02-01T14:06:36;7.07;;;2.77;;
17422;SDS011;8829;47.932;7.810;2023-02-01T14:09:16;7.80;;;2.67;;
17422;SDS011;8829;47.932;7.810;2023-02-01T14:11:47;7.53;;;2.80;;
17422;SDS011;8829;47.932;7.810;2023-02-01T14:23:21;7.60;;;2.93;;
17422;SDS011;8829;47.932;7.810;2023-02-01T14:28:50;7.90;;;2.40;;
17422;SDS011;8829;47.932;7.810;2023-02-01T14:31:30;8.60;;;2.20;;
17422;SDS011;8829;47.932;7.810;2023-02-01T14:34:01;5.47;;;3.10;;
17422;SDS011;8829;47.932;7.810;2023-02-01T14:36:40;6.13;;;2.57;;
17422;SDS011;8829;47.932;7.810;2023-02-01T14:39:25;8.57;;;3.00;;
17422;SDS011;8829;47.932;7.810;2023-02-01T14:41:55;7.87;;;2.80;;
17422;SDS011;8829;47.932;7.810;2023-02-01T14:44:30;4.63;;;2.40;;
17422;SDS011;8829;47.932;7.810;2023-02-01T14:47:25;8.27;;;3.50;;
17422;SDS011;8829;47.932;7.810;2023-02-01T14:49:59;10.27;;;2.80;;
17422;SDS011;8829;47.932;7.810;2023-02-01T14:52:36;7.33;;;2.90;;
17422;SDS011;8829;47.932;7.810;2023-02-01T14:55:09;8.73;;;3.38;;
17422;SDS011;8829;47.932;7.810;2023-02-01T14:57:40;10.63;;;2.93;;
17422;SDS011;8829;47.932;7.810;2023-02-01T15:00:19;9.87;;;3.00;;
17422;SDS011;8829;47.932;7.810;2023-02-01T15:02:48;8.70;;;3.17;;
17422;SDS011;8829;47.932;7.810;2023-02-01T15:05:22;8.53;;;2.37;;
17422;SDS011;8829;47.932;7.810;2023-02-01T15:07:57;10.57;;;3.07;;
17422;SDS011;8829;47.932;7.810;2023-02-01T15:10:29;6.10;;;2.60;;
17422;SDS011;8829;47.932;7.810;2023-02-01T15:13:00;10.47;;;2.83;;
17422;SDS011;8829;47.932;7.810;2023-02-01T15:15:28;5.63;;;2.90;;
17422;SDS011;8829;47.932;7.810;2023-02-01T15:17:58;15.47;;;3.23;;
17422;SDS011;8829;47.932;7.810;2023-02-01T15:20:26;8.57;;;2.50;;
17422;SDS011;8829;47.932;7.810;2023-02-01T15:22:56;4.60;;;2.30;;
17422;SDS011;8829;47.932;7.810;2023-02-01T15:25:26;5.00;;;2.53;;
17422;SDS011;8829;47.932;7.810;2023-02-01T15:27:54;15.47;;;2.77;;
17422;SDS011;8829;47.932;7.810;2023-02-01T15:30:25;10.07;;;2.63;;
17422;SDS011;8829;47.932;7.810;2023-02-01T15:33:05;5.67;;;2.80;;
17422;SDS011;8829;47.932;7.810;2023-02-01T15:35:38;5.30;;;2.30;;
17422;SDS011;8829;47.932;7.810;2023-02-01T15:38:18;9.37;;;3.67;;
17422;SDS011;8829;47.932;7.810;2023-02-01T15:41:03;8.77;;;2.77;;
17422;SDS011;8829;47.932;7.810;2023-02-01T15:43:33;6.40;;;2.30;;
17422;SDS011;8829;47.932;7.810;2023-02-01T15:46:03;12.50;;;2.63;;
17422;SDS011;8829;47.932;7.810;2023-02-01T15:48:36;14.53;;;2.70;;
17422;SDS011;8829;47.932;7.810;2023-02-01T15:51:11;9.73;;;2.77;;
17422;SDS011;8829;47.932;7.810;2023-02-01T15:53:45;7.70;;;3.23;;
17422;SDS011;8829;47.932;7.810;2023-02-01T15:56:21;8.67;;;3.13;;
17422;SDS011;8829;47.932;7.810;2023-02-01T15:58:52;8.57;;;3.83;;
17422;SDS011;8829;47.932;7.810;2023-02-01T16:01:21;11.40;;;2.80;;
17422;SDS011;8829;47.932;7.810;2023-02-01T16:04:00;6.37;;;2.13;;
17422;SDS011;8829;47.932;7.810;2023-02-01T16:06:30;5.03;;;2.13;;
17422;SDS011;8829;47.932;7.810;2023-02-01T16:09:00;10.63;;;3.00;;